createdAt,value
2023-05-05T00:00:51.742Z,94066.84
2023-05-05T00:03:20.656Z,94070.81
2023-05-05T00:05:48.897Z,94072.91
2023-05-05T00:08:15.916Z,94068.25
2023-05-05T00:10:45.792Z,94064.72
2023-05-05T00:13:12.893Z,94062.88
2023-05-05T00:15:43.930Z,94058.59
2023-05-05T00:18:11.403Z,94066.44
2023-05-05T00:20:38.304Z,94059.72
2023-05-05T00:23:05.434Z,94058.56
2023-05-05T00:25:32.111Z,94057.75
2023-05-05T00:27:58.794Z,94060.31
2023-05-05T00:30:25.579Z,94058.59
2023-05-05T00:32:52.166Z,94055.81
2023-05-05T00:35:18.879Z,94051.50
2023-05-05T00:37:45.754Z,94054.56
2023-05-05T00:40:13.319Z,94041.72
2023-05-05T00:42:42.398Z,94047.94
2023-05-05T00:45:13.535Z,94050.16
2023-05-05T00:47:42.928Z,94051.81
2023-05-05T00:50:10.946Z,94047.13
2023-05-05T00:52:38.176Z,94050.38
2023-05-05T00:55:05.932Z,94060.50
2023-05-05T00:57:33.750Z,94054.56
2023-05-05T01:00:01.304Z,94055.28
2023-05-05T01:02:28.196Z,94059.25
2023-05-05T01:04:55.627Z,94067.50
2023-05-05T01:07:58.775Z,94054.59
2023-05-05T01:10:34.154Z,94058.25
2023-05-05T01:13:03.740Z,94049.84
2023-05-05T01:15:32.559Z,94051.47
2023-05-05T01:18:03.991Z,94057.69
2023-05-05T01:20:53.151Z,94052.97
2023-05-05T01:23:42.694Z,94045.50
2023-05-05T01:26:46.554Z,94049.84
2023-05-05T01:29:31.387Z,94052.97
2023-05-05T01:32:24.509Z,94054.09
2023-05-05T01:34:56.057Z,94058.00
2023-05-05T01:37:33.222Z,94055.25
2023-05-05T01:40:06.215Z,94060.06
2023-05-05T01:42:35.221Z,94057.06
2023-05-05T01:45:04.789Z,94050.47
2023-05-05T01:47:32.245Z,94057.91
2023-05-05T01:50:00.769Z,94055.72
2023-05-05T01:52:29.528Z,94060.84
2023-05-05T01:54:57.904Z,94056.88
2023-05-05T01:57:26.504Z,94057.19
2023-05-05T01:59:54.463Z,94063.81
2023-05-05T02:02:22.229Z,94062.28
2023-05-05T02:04:51.137Z,94064.44
2023-05-05T02:07:19.432Z,94068.19
2023-05-05T02:09:48.001Z,94064.34
2023-05-05T02:12:16.522Z,94067.44
2023-05-05T02:14:44.130Z,94065.03
2023-05-05T02:17:12.536Z,94067.75
2023-05-05T02:19:43.912Z,94072.09
2023-05-05T02:22:12.210Z,94083.09
2023-05-05T02:24:38.934Z,94076.06
2023-05-05T02:27:08.407Z,94081.56
2023-05-05T02:29:39.406Z,94078.00
2023-05-05T02:32:14.290Z,94075.66
2023-05-05T02:34:42.831Z,94078.44
2023-05-05T02:37:12.545Z,94079.31
2023-05-05T02:39:47.439Z,94071.47
2023-05-05T02:42:21.829Z,94079.56
2023-05-05T02:44:51.384Z,94080.75
2023-05-05T02:47:18.013Z,94080.22
2023-05-05T02:49:44.609Z,94074.25
2023-05-05T02:52:11.450Z,94072.19
2023-05-05T02:54:38.262Z,94063.91
2023-05-05T02:57:05.022Z,94067.47
2023-05-05T02:59:56.857Z,94059.38
2023-05-05T03:02:49.307Z,94062.91
2023-05-05T03:05:21.139Z,94064.38
2023-05-05T03:08:14.184Z,94057.59
2023-05-05T03:11:08.016Z,94059.81
2023-05-05T03:13:36.694Z,94057.06
2023-05-05T03:16:06.808Z,94062.13
2023-05-05T03:18:40.169Z,94063.50
2023-05-05T03:21:09.934Z,94058.75
2023-05-05T03:23:36.842Z,94049.25
2023-05-05T03:26:03.550Z,94060.88
2023-05-05T03:28:30.229Z,94063.13
2023-05-05T03:30:57.246Z,94055.69
2023-05-05T03:33:23.970Z,94057.63
2023-05-05T03:35:50.884Z,94066.34
2023-05-05T03:38:17.766Z,94062.81
2023-05-05T03:40:44.942Z,94068.75
2023-05-05T03:43:11.850Z,94072.59
2023-05-05T03:45:38.670Z,94063.91
2023-05-05T03:48:06.094Z,94066.53
2023-05-05T03:50:32.730Z,94069.16
2023-05-05T03:52:59.501Z,94064.41
2023-05-05T03:55:26.242Z,94062.84
2023-05-05T03:57:52.897Z,94059.75
2023-05-05T04:00:19.690Z,94061.75
2023-05-05T04:02:46.484Z,94064.53
2023-05-05T04:05:13.246Z,94058.59
2023-05-05T04:07:39.915Z,94077.91
2023-05-05T04:10:07.429Z,94068.06
2023-05-05T04:12:34.324Z,94080.81
2023-05-05T04:15:01.028Z,94082.25
2023-05-05T04:17:27.657Z,94089.19
2023-05-05T04:19:54.293Z,94073.50
2023-05-05T04:22:20.923Z,94082.34
2023-05-05T04:24:47.617Z,94077.53
2023-05-05T04:27:14.288Z,94079.09
2023-05-05T04:29:41.323Z,94083.25
2023-05-05T04:32:08.008Z,94077.34
2023-05-05T04:34:35.004Z,94083.28
2023-05-05T04:37:01.669Z,94090.53
2023-05-05T04:39:28.392Z,94086.91
2023-05-05T04:41:55.091Z,94086.00
2023-05-05T04:44:21.706Z,94085.72
2023-05-05T04:46:48.408Z,94089.16
2023-05-05T04:49:15.078Z,94087.22
2023-05-05T04:51:42.316Z,94092.09
2023-05-05T04:54:09.024Z,94092.34
2023-05-05T04:56:35.923Z,94087.41
2023-05-05T04:59:02.656Z,94089.13
2023-05-05T05:01:29.356Z,94092.41
2023-05-05T05:03:56.084Z,94102.44
2023-05-05T05:06:22.801Z,94091.97
2023-05-05T05:08:49.574Z,94094.53
2023-05-05T05:11:16.228Z,94094.31
2023-05-05T05:13:42.955Z,94102.66
2023-05-05T05:16:09.691Z,94097.19
2023-05-05T05:18:36.488Z,94103.19
2023-05-05T05:21:03.516Z,94108.72
2023-05-05T05:23:30.279Z,94103.88
2023-05-05T05:25:57.224Z,94107.25
2023-05-05T05:28:23.961Z,94110.53
2023-05-05T05:30:50.687Z,94099.34
2023-05-05T05:33:18.944Z,94105.16
2023-05-05T05:35:46.102Z,94101.06
2023-05-05T05:38:12.689Z,94107.00
2023-05-05T05:40:39.349Z,94116.34
2023-05-05T05:43:06.414Z,94111.97
2023-05-05T05:45:33.093Z,94118.69
2023-05-05T05:47:59.837Z,94121.94
2023-05-05T05:50:28.574Z,94126.19
2023-05-05T05:52:55.649Z,94117.34
2023-05-05T05:55:22.445Z,94123.19
2023-05-05T05:57:49.189Z,94117.88
2023-05-05T06:00:16.179Z,94122.84
2023-05-05T06:02:42.986Z,94123.19
2023-05-05T06:05:10.510Z,94131.94
2023-05-05T06:07:37.140Z,94129.63
2023-05-05T06:10:18.647Z,94127.53
2023-05-05T06:12:51.174Z,94132.31
2023-05-05T06:15:17.899Z,94130.22
2023-05-05T06:17:44.547Z,94137.38
2023-05-05T06:20:13.835Z,94138.22
2023-05-05T06:22:40.614Z,94140.63
2023-05-05T06:25:07.600Z,94143.84
2023-05-05T06:27:34.593Z,94141.69
2023-05-05T06:30:01.273Z,94140.69
2023-05-05T06:32:27.961Z,94138.13
2023-05-05T06:34:54.632Z,94137.25
2023-05-05T06:37:21.268Z,94147.91
2023-05-05T06:39:47.910Z,94147.78
2023-05-05T06:42:14.591Z,94149.31
2023-05-05T06:44:41.424Z,94143.56
2023-05-05T06:47:08.102Z,94146.19
2023-05-05T06:49:34.831Z,94153.00
2023-05-05T06:52:01.628Z,94156.19
2023-05-05T06:54:28.209Z,94158.44
2023-05-05T06:56:54.851Z,94158.22
2023-05-05T06:59:21.510Z,94167.00
2023-05-05T07:01:48.208Z,94160.97
2023-05-05T07:04:14.833Z,94163.03
2023-05-05T07:06:41.539Z,94155.75
2023-05-05T07:09:08.223Z,94162.03
2023-05-05T07:11:35.095Z,94163.31
2023-05-05T07:14:02.227Z,94156.53
2023-05-05T07:16:28.921Z,94157.63
2023-05-05T07:18:55.642Z,94151.50
2023-05-05T07:21:22.280Z,94147.44
2023-05-05T07:23:49.090Z,94138.44
2023-05-05T07:26:15.769Z,94135.09
2023-05-05T07:28:43.973Z,94136.03
2023-05-05T07:31:10.581Z,94125.84
2023-05-05T07:33:37.373Z,94125.97
2023-05-05T07:36:04.535Z,94119.28
2023-05-05T07:38:31.530Z,94107.53
2023-05-05T07:40:58.262Z,94109.69
2023-05-05T07:43:24.860Z,94104.06
2023-05-05T07:45:51.587Z,94100.72
2023-05-05T07:48:18.329Z,94108.00
2023-05-05T07:50:45.001Z,94101.31
2023-05-05T07:53:14.819Z,94114.00
2023-05-05T07:55:42.190Z,94105.09
2023-05-05T07:58:10.795Z,94111.91
2023-05-05T08:00:38.269Z,94107.59
2023-05-05T08:03:05.479Z,94103.38
2023-05-05T08:05:32.696Z,94106.31
2023-05-05T08:07:59.530Z,94106.25
2023-05-05T08:10:26.159Z,94100.94
2023-05-05T08:12:54.407Z,94105.28
2023-05-05T08:15:21.644Z,94105.72
2023-05-05T08:17:51.018Z,94102.13
2023-05-05T08:20:20.331Z,94107.44
2023-05-05T08:22:47.584Z,94109.44
2023-05-05T08:25:14.528Z,94107.13
2023-05-05T08:27:42.531Z,94112.88
2023-05-05T08:30:09.990Z,94100.19
2023-05-05T08:32:36.849Z,94109.97
2023-05-05T08:35:05.516Z,94112.69
2023-05-05T08:37:32.531Z,94107.44
2023-05-05T08:39:59.212Z,94107.25
2023-05-05T08:42:36.162Z,94101.16
2023-05-05T08:45:04.925Z,94097.34
2023-05-05T08:47:32.304Z,94098.13
2023-05-05T08:49:59.263Z,94097.03
2023-05-05T08:52:28.890Z,94096.63
2023-05-05T08:55:06.483Z,94091.13
2023-05-05T08:57:41.580Z,94100.75
2023-05-05T09:00:09.878Z,94100.91
2023-05-05T09:02:37.259Z,94085.94
2023-05-05T09:05:06.305Z,94098.53
2023-05-05T09:07:34.721Z,94091.09
2023-05-05T09:10:04.495Z,94096.66
2023-05-05T09:12:31.863Z,94079.47
2023-05-05T09:14:59.390Z,94085.53
2023-05-05T09:17:26.752Z,94091.03
2023-05-05T09:20:04.734Z,94083.09
2023-05-05T09:22:38.515Z,94086.47
2023-05-05T09:25:06.838Z,94084.16
2023-05-05T09:27:41.966Z,94084.66
2023-05-05T09:30:10.862Z,94088.00
2023-05-05T09:33:04.220Z,94080.41
2023-05-05T09:35:49.344Z,94080.09
2023-05-05T09:38:16.200Z,94071.66
2023-05-05T09:40:47.833Z,94068.47
2023-05-05T09:43:15.802Z,94067.38
2023-05-05T09:45:43.322Z,94062.94
2023-05-05T09:48:32.259Z,94060.78
2023-05-05T09:50:59.823Z,94060.78
2023-05-05T09:53:27.047Z,94054.22
2023-05-05T09:55:58.560Z,94045.25
2023-05-05T09:58:26.933Z,94041.00
2023-05-05T10:00:54.841Z,94050.56
2023-05-05T10:03:22.035Z,94037.66
2023-05-05T10:05:50.292Z,94032.16
2023-05-05T10:08:18.555Z,94039.41
2023-05-05T10:10:55.891Z,94031.91
2023-05-05T10:13:24.948Z,94036.50
2023-05-05T10:15:57.105Z,94040.88
2023-05-05T10:18:25.647Z,94037.22
2023-05-05T10:20:58.238Z,94021.13
2023-05-05T10:23:32.260Z,94022.63
2023-05-05T10:26:04.542Z,94018.47
2023-05-05T10:28:41.946Z,94021.63
2023-05-05T10:31:25.043Z,94016.13
2023-05-05T10:34:03.800Z,94011.44
2023-05-05T10:36:31.836Z,94007.84
2023-05-05T10:39:00.211Z,94000.44
2023-05-05T10:41:27.008Z,94006.44
2023-05-05T10:43:57.473Z,94005.81
2023-05-05T10:46:26.775Z,93990.06
2023-05-05T10:49:28.880Z,94001.84
2023-05-05T10:52:00.508Z,93987.66
2023-05-05T10:54:39.510Z,93988.06
2023-05-05T10:57:10.492Z,93980.97
2023-05-05T10:59:37.330Z,93979.00
2023-05-05T11:02:22.226Z,93974.19
2023-05-05T11:05:07.027Z,93969.28
2023-05-05T11:07:34.599Z,93970.53
2023-05-05T11:10:03.208Z,93965.13
2023-05-05T11:12:31.458Z,93960.91
2023-05-05T11:15:24.115Z,93954.69
2023-05-05T11:17:51.090Z,93953.53
2023-05-05T11:20:18.383Z,93950.00
2023-05-05T11:23:03.511Z,93945.47
2023-05-05T11:25:40.781Z,93943.78
2023-05-05T11:28:12.786Z,93946.03
2023-05-05T11:30:54.667Z,93930.53
2023-05-05T11:33:38.339Z,93922.06
2023-05-05T11:36:12.798Z,93925.66
2023-05-05T11:38:39.491Z,93928.47
2023-05-05T11:41:32.459Z,93925.59
2023-05-05T11:44:16.003Z,93922.28
2023-05-05T11:46:51.914Z,93917.28
2023-05-05T11:49:31.720Z,93915.44
2023-05-05T11:52:05.419Z,93911.63
2023-05-05T11:54:32.917Z,93918.72
2023-05-05T11:57:05.404Z,93909.31
2023-05-05T11:59:32.626Z,93916.72
2023-05-05T12:02:00.255Z,93905.94
2023-05-05T12:04:27.071Z,93908.31
2023-05-05T12:06:55.409Z,93909.50
2023-05-05T12:09:23.176Z,93906.00
2023-05-05T12:11:56.791Z,93903.31
2023-05-05T12:14:25.429Z,93892.22
2023-05-05T12:16:58.735Z,93887.13
2023-05-05T12:19:30.356Z,93886.53
2023-05-05T12:21:57.157Z,93891.19
2023-05-05T12:24:24.202Z,93884.69
2023-05-05T12:26:51.709Z,93888.94
2023-05-05T12:29:25.307Z,93883.59
2023-05-05T12:31:52.011Z,93885.38
2023-05-05T12:34:19.191Z,93884.88
2023-05-05T12:36:46.251Z,93894.19
2023-05-05T12:39:13.526Z,93881.56
2023-05-05T12:41:40.322Z,93884.63
2023-05-05T12:44:07.105Z,93894.59
2023-05-05T12:46:49.157Z,93882.25
2023-05-05T12:49:16.758Z,93881.03
2023-05-05T12:51:54.618Z,93885.44
2023-05-05T12:54:23.701Z,93881.16
2023-05-05T12:56:50.474Z,93878.94
2023-05-05T12:59:22.949Z,93869.47
2023-05-05T13:01:54.276Z,93866.03
2023-05-05T13:04:23.150Z,93854.50
2023-05-05T13:07:08.432Z,93855.25
2023-05-05T13:09:35.532Z,93856.66
2023-05-05T13:12:07.140Z,93845.91
2023-05-05T13:14:35.208Z,93854.53
2023-05-05T13:17:01.838Z,93844.59
2023-05-05T13:19:28.847Z,93842.00
2023-05-05T13:21:56.848Z,93841.16
2023-05-05T13:24:38.127Z,93832.69
2023-05-05T13:27:11.771Z,93828.81
2023-05-05T13:29:38.656Z,93813.91
2023-05-05T13:32:05.565Z,93813.00
2023-05-05T13:34:32.294Z,93815.16
2023-05-05T13:36:58.984Z,93806.19
2023-05-05T13:39:25.828Z,93795.63
2023-05-05T13:41:52.534Z,93792.50
2023-05-05T13:44:19.210Z,93797.88
2023-05-05T13:46:46.011Z,93800.47
2023-05-05T13:49:12.773Z,93797.56
2023-05-05T13:51:39.481Z,93786.56
2023-05-05T13:54:06.924Z,93779.25
2023-05-05T13:56:34.768Z,93776.88
2023-05-05T13:59:02.666Z,93778.84
2023-05-05T14:01:30.194Z,93788.31
2023-05-05T14:03:57.786Z,93783.34
2023-05-05T14:06:25.939Z,93787.91
2023-05-05T14:08:52.946Z,93783.16
2023-05-05T14:11:20.638Z,93780.94
2023-05-05T14:13:47.993Z,93774.97
2023-05-05T14:16:14.774Z,93767.88
2023-05-05T14:18:41.661Z,93757.13
2023-05-05T14:21:08.379Z,93748.53
2023-05-05T14:23:35.066Z,93739.13
2023-05-05T14:26:01.749Z,93738.03
2023-05-05T14:28:28.386Z,93733.56
2023-05-05T14:30:55.145Z,93726.34
2023-05-05T14:33:22.254Z,93725.75
2023-05-05T14:35:49.077Z,93732.34
2023-05-05T14:38:15.909Z,93723.84
2023-05-05T14:40:42.623Z,93726.59
2023-05-05T14:43:09.272Z,93733.31
2023-05-05T14:45:35.996Z,93737.41
2023-05-05T14:48:02.796Z,93741.00
2023-05-05T14:50:29.527Z,93743.03
2023-05-05T14:52:56.318Z,93740.75
2023-05-05T14:55:24.956Z,93741.19
2023-05-05T14:57:51.959Z,93742.41
2023-05-05T15:00:18.928Z,93738.03
2023-05-05T15:02:45.670Z,93737.44
2023-05-05T15:05:12.423Z,93745.53
2023-05-05T15:07:40.128Z,93745.78
2023-05-05T15:10:07.658Z,93750.06
2023-05-05T15:12:34.461Z,93757.97
2023-05-05T15:15:01.238Z,93756.84
2023-05-05T15:17:28.691Z,93764.56
2023-05-05T15:19:55.510Z,93757.84
2023-05-05T15:22:22.256Z,93762.00
2023-05-05T15:24:48.856Z,93775.34
2023-05-05T15:27:15.514Z,93789.31
2023-05-05T15:29:42.250Z,93804.63
2023-05-05T15:32:08.978Z,93830.19
2023-05-05T15:34:37.211Z,93839.13
2023-05-05T15:37:03.837Z,93824.31
2023-05-05T15:39:30.549Z,93837.59
2023-05-05T15:41:57.180Z,93867.63
2023-05-05T15:44:23.834Z,93936.28
2023-05-05T15:46:50.709Z,94024.94
2023-05-05T15:49:17.433Z,94047.06
2023-05-05T15:51:44.178Z,94038.47
2023-05-05T15:54:10.900Z,94050.75
2023-05-05T15:56:37.632Z,94053.41
2023-05-05T15:59:04.339Z,94052.31
2023-05-05T16:01:33.486Z,94054.31
2023-05-05T16:04:01.267Z,94056.19
2023-05-05T16:06:28.203Z,94042.13
2023-05-05T16:08:56.093Z,94039.03
2023-05-05T16:11:23.854Z,94024.69
2023-05-05T16:13:50.652Z,94017.38
2023-05-05T16:16:17.630Z,94002.44
2023-05-05T16:18:44.308Z,93997.47
2023-05-05T16:21:11.054Z,94000.34
2023-05-05T16:23:38.015Z,94005.66
2023-05-05T16:26:04.686Z,94001.13
2023-05-05T16:28:31.395Z,93997.56
2023-05-05T16:30:58.044Z,93987.50
2023-05-05T16:33:24.786Z,93989.81
2023-05-05T16:35:51.432Z,93994.31
2023-05-05T16:38:18.137Z,93989.31
2023-05-05T16:40:44.782Z,93999.47
2023-05-05T16:43:11.427Z,93970.63
2023-05-05T16:45:38.186Z,93961.81
2023-05-05T16:48:07.496Z,93951.63
2023-05-05T16:50:35.958Z,93950.25
2023-05-05T16:53:02.640Z,93938.13
2023-05-05T16:55:29.669Z,93925.66
2023-05-05T16:57:56.529Z,93904.28
2023-05-05T17:00:23.221Z,93898.75
2023-05-05T17:02:50.192Z,93898.53
2023-05-05T17:05:17.712Z,93895.22
2023-05-05T17:07:44.786Z,93898.91
2023-05-05T17:10:11.569Z,93892.34
2023-05-05T17:12:38.380Z,93875.69
2023-05-05T17:15:05.756Z,93886.19
2023-05-05T17:17:32.401Z,93875.59
2023-05-05T17:19:59.241Z,93888.59
2023-05-05T17:22:25.950Z,93887.81
2023-05-05T17:24:52.678Z,93893.03
2023-05-05T17:27:19.422Z,93881.44
2023-05-05T17:29:46.152Z,93894.81
2023-05-05T17:32:12.914Z,93896.25
2023-05-05T17:34:41.087Z,93906.47
2023-05-05T17:37:09.070Z,93909.31
2023-05-05T17:39:35.807Z,93910.50
2023-05-05T17:42:02.587Z,93907.31
2023-05-05T17:44:29.224Z,93907.97
2023-05-05T17:46:55.920Z,93910.94
2023-05-05T17:49:25.246Z,93919.19
2023-05-05T17:51:52.061Z,93919.00
2023-05-05T17:54:18.789Z,93918.69
2023-05-05T17:56:45.400Z,93917.22
2023-05-05T17:59:12.061Z,93904.19
2023-05-05T18:01:38.860Z,93910.78
2023-05-05T18:04:05.492Z,93912.78
2023-05-05T18:06:32.164Z,93913.97
2023-05-05T18:08:58.795Z,93914.56
2023-05-05T18:11:27.943Z,93914.78
2023-05-05T18:13:56.057Z,93909.03
2023-05-05T18:16:22.839Z,93923.19
2023-05-05T18:18:49.652Z,93920.81
2023-05-05T18:21:16.427Z,93930.09
2023-05-05T18:23:43.074Z,93928.00
2023-05-05T18:26:09.801Z,93929.78
2023-05-05T18:28:37.244Z,93936.16
2023-05-05T18:31:03.992Z,93938.38
2023-05-05T18:33:30.715Z,93932.41
2023-05-05T18:35:57.867Z,93955.22
2023-05-05T18:38:24.761Z,93951.22
2023-05-05T18:40:51.520Z,93951.63
2023-05-05T18:43:18.217Z,93950.34
2023-05-05T18:45:45.242Z,93964.59
2023-05-05T18:48:12.123Z,93971.75
2023-05-05T18:50:38.867Z,93979.69
2023-05-05T18:53:05.598Z,93983.66
2023-05-05T18:55:32.289Z,93987.97
2023-05-05T18:57:58.985Z,93999.34
2023-05-05T19:00:25.712Z,94007.00
2023-05-05T19:02:52.352Z,94004.25
2023-05-05T19:05:19.213Z,94019.06
2023-05-05T19:07:46.142Z,94013.13
2023-05-05T19:10:13.104Z,94022.03
2023-05-05T19:12:39.853Z,94022.53
2023-05-05T19:15:07.306Z,94026.44
2023-05-05T19:17:34.229Z,94034.16
2023-05-05T19:20:00.975Z,94036.94
2023-05-05T19:22:27.805Z,94029.44
2023-05-05T19:24:54.494Z,94047.53
2023-05-05T19:27:21.497Z,94039.16
2023-05-05T19:29:52.497Z,94045.03
2023-05-05T19:32:20.908Z,94050.44
2023-05-05T19:34:48.017Z,94046.41
2023-05-05T19:37:14.876Z,94046.75
2023-05-05T19:39:44.332Z,94044.34
2023-05-05T19:42:11.636Z,94052.69
2023-05-05T19:44:38.383Z,94052.78
2023-05-05T19:47:05.280Z,94046.16
2023-05-05T19:49:32.055Z,94055.13
2023-05-05T19:51:59.031Z,94068.25
2023-05-05T19:54:26.270Z,94068.06
2023-05-05T19:56:54.589Z,94063.13
2023-05-05T19:59:22.018Z,94067.53
2023-05-05T20:01:48.878Z,94066.13
2023-05-05T20:04:15.642Z,94066.34
2023-05-05T20:06:42.403Z,94068.94
2023-05-05T20:09:09.111Z,94060.38
2023-05-05T20:11:35.971Z,94067.66
2023-05-05T20:14:02.800Z,94069.84
2023-05-05T20:16:29.522Z,94072.69
2023-05-05T20:18:56.313Z,94070.84
2023-05-05T20:21:23.027Z,94066.97
2023-05-05T20:23:49.854Z,94068.66
2023-05-05T20:26:17.067Z,94071.53
2023-05-05T20:28:45.703Z,94068.22
2023-05-05T20:31:14.529Z,94069.09
2023-05-05T20:33:41.233Z,94064.16
2023-05-05T20:36:08.080Z,94067.41
2023-05-05T20:38:34.770Z,94067.03
2023-05-05T20:41:01.459Z,94072.59
2023-05-05T20:43:28.232Z,94075.16
2023-05-05T20:45:54.961Z,94080.66
2023-05-05T20:48:21.736Z,94084.59
2023-05-05T20:50:48.387Z,94075.59
2023-05-05T20:53:18.845Z,94075.69
2023-05-05T20:55:45.914Z,94072.34
2023-05-05T20:58:12.910Z,94067.28
2023-05-05T21:00:39.768Z,94074.09
2023-05-05T21:03:06.580Z,94069.38
2023-05-05T21:05:33.245Z,94074.44
2023-05-05T21:08:01.152Z,94080.09
2023-05-05T21:10:29.058Z,94084.41
2023-05-05T21:12:55.967Z,94078.97
2023-05-05T21:15:22.869Z,94075.44
2023-05-05T21:17:49.539Z,94071.09
2023-05-05T21:20:16.934Z,94076.22
2023-05-05T21:22:44.036Z,94073.81
2023-05-05T21:25:18.885Z,94066.78
2023-05-05T21:27:47.010Z,94076.56
2023-05-05T21:30:14.325Z,94076.16
2023-05-05T21:32:41.597Z,94079.28
2023-05-05T21:35:09.268Z,94078.72
2023-05-05T21:37:39.552Z,94079.34
2023-05-05T21:40:10.785Z,94079.16
2023-05-05T21:42:37.686Z,94075.09
2023-05-05T21:45:04.699Z,94069.13
2023-05-05T21:47:31.543Z,94068.28
2023-05-05T21:49:58.967Z,94060.31
2023-05-05T21:52:25.949Z,94055.63
2023-05-05T21:54:52.651Z,94054.72
2023-05-05T21:57:19.386Z,94039.06
2023-05-05T21:59:46.587Z,94054.47
2023-05-05T22:02:13.367Z,94054.19
2023-05-05T22:04:40.010Z,94053.53
2023-05-05T22:07:06.738Z,94059.19
2023-05-05T22:09:33.458Z,94057.59
2023-05-05T22:12:00.144Z,94053.56
2023-05-05T22:14:26.764Z,94058.97
2023-05-05T22:16:53.442Z,94060.63
2023-05-05T22:19:20.131Z,94059.38
2023-05-05T22:21:46.805Z,94064.72
2023-05-05T22:24:13.548Z,94042.22
2023-05-05T22:26:43.152Z,94047.75
2023-05-05T22:29:11.026Z,94044.16
2023-05-05T22:31:37.803Z,94036.19
2023-05-05T22:34:04.734Z,94040.81
2023-05-05T22:36:31.806Z,94031.06
2023-05-05T22:38:58.836Z,94034.09
2023-05-05T22:41:25.651Z,94039.13
2023-05-05T22:43:52.383Z,94038.41
2023-05-05T22:46:19.065Z,94039.53
2023-05-05T22:48:46.085Z,94044.63
2023-05-05T22:51:13.458Z,94042.25
2023-05-05T22:53:40.249Z,94041.47
2023-05-05T22:56:07.269Z,94034.41
2023-05-05T22:58:33.850Z,94044.50
2023-05-05T23:01:00.600Z,94064.72
2023-05-05T23:03:27.345Z,94064.91
2023-05-05T23:05:54.004Z,94071.59
2023-05-05T23:08:20.918Z,94073.38
2023-05-05T23:10:47.559Z,94061.63
2023-05-05T23:13:14.480Z,94060.19
2023-05-05T23:15:41.249Z,94050.78
2023-05-05T23:18:08.111Z,94050.31
2023-05-05T23:20:34.864Z,94044.75
2023-05-05T23:23:01.483Z,94040.06
2023-05-05T23:25:28.114Z,94036.53
2023-05-05T23:27:54.747Z,94032.59
2023-05-05T23:30:21.573Z,94031.41
2023-05-05T23:32:48.290Z,94035.41
2023-05-05T23:35:15.526Z,94031.47
2023-05-05T23:37:42.334Z,94029.94
2023-05-05T23:40:09.329Z,94035.44
2023-05-05T23:42:36.077Z,94039.03
2023-05-05T23:45:03.389Z,94038.66
2023-05-05T23:47:30.047Z,94034.72
2023-05-05T23:49:56.794Z,94035.31
2023-05-05T23:52:23.438Z,94031.59
2023-05-05T23:54:50.050Z,94029.25
2023-05-05T23:57:16.667Z,94027.97
2023-05-05T23:59:43.336Z,94035.09
